Time,TemperatureF,DewpointF,PressureIn,WindDirection,WindDirectionDegrees,WindSpeedMPH,WindSpeedGustMPH,Humidity,HourlyPrecipIn,Conditions,Clouds,dailyrainin,SoftwareType,DateUTC
2013-06-04 00:02:00,45.9,43.0,29.89,NNW,329,0.0,0.0,90,0.00,,,0.01,weatherlink.com 1.10,2013-06-04 04:02:00,
2013-06-04 00:18:00,44.6,42.0,29.89,NNW,329,0.0,1.0,91,0.00,,,0.01,weatherlink.com 1.10,2013-06-04 04:18:00,
2013-06-04 00:32:00,44.2,42.0,29.89,NNW,329,0.0,3.0,92,0.00,,,0.01,weatherlink.com 1.10,2013-06-04 04:32:00,
2013-06-04 00:47:00,44.3,42.0,29.89,NNW,329,3.0,4.0,92,0.00,,,0.01,weatherlink.com 1.10,2013-06-04 04:47:00,
2013-06-04 01:02:00,44.8,42.0,29.90,North,5,0.0,4.0,91,0.00,,,0.01,weatherlink.com 1.10,2013-06-04 05:02:00,
2013-06-04 01:17:00,44.3,42.0,29.90,North,5,0.0,2.0,90,0.00,,,0.01,weatherlink.com 1.10,2013-06-04 05:17:00,
2013-06-04 01:33:00,42.9,41.0,29.90,North,5,0.0,0.0,91,0.00,,,0.01,weatherlink.com 1.10,2013-06-04 05:33:00,
2013-06-04 01:48:00,42.1,40.0,29.90,North,5,0.0,0.0,92,0.00,,,0.01,weatherlink.com 1.10,2013-06-04 05:48:00,
2013-06-04 02:03:00,42.5,41.0,29.91,WNW,292,2.0,5.0,93,0.00,,,0.01,weatherlink.com 1.10,2013-06-04 06:03:00,
2013-06-04 02:18:00,44.5,41.0,29.91,NW,323,3.0,5.0,88,0.00,,,0.01,weatherlink.com 1.10,2013-06-04 06:18:00,
2013-06-04 02:33:00,44.9,41.0,29.91,NNW,338,2.0,5.0,85,0.00,,,0.01,weatherlink.com 1.10,2013-06-04 06:33:00,
2013-06-04 02:48:00,45.1,41.0,29.90,NW,317,5.0,7.0,86,0.00,,,0.01,weatherlink.com 1.10,2013-06-04 06:48:00,
2013-06-04 03:03:00,44.8,41.0,29.90,NW,325,5.0,6.0,85,0.00,,,0.01,weatherlink.com 1.10,2013-06-04 07:03:00,
2013-06-04 03:18:00,44.7,41.0,29.91,NW,319,6.0,8.0,87,0.00,,,0.01,weatherlink.com 1.10,2013-06-04 07:18:00,
2013-06-04 03:33:00,45.2,41.0,29.91,NNW,336,3.0,9.0,85,0.00,,,0.01,weatherlink.com 1.10,2013-06-04 07:33:00,
2013-06-04 03:48:00,44.9,41.0,29.91,WSW,252,3.0,7.0,86,0.00,,,0.01,weatherlink.com 1.10,2013-06-04 07:48:00,
2013-06-04 04:04:00,44.6,41.0,29.91,NW,304,4.0,6.0,87,0.00,,,0.01,weatherlink.com 1.10,2013-06-04 08:04:00,
2013-06-04 04:19:00,44.2,41.0,29.91,NW,317,5.0,7.0,88,0.00,,,0.01,weatherlink.com 1.10,2013-06-04 08:19:00,
2013-06-04 04:34:00,44.3,41.0,29.91,NW,321,5.0,9.0,87,0.00,,,0.01,weatherlink.com 1.10,2013-06-04 08:34:00,
2013-06-04 04:49:00,44.2,40.0,29.92,NW,306,5.0,13.0,86,0.00,,,0.01,weatherlink.com 1.10,2013-06-04 08:49:00,
2013-06-04 05:05:00,44.0,40.0,29.92,NW,309,8.0,11.0,87,0.00,,,0.01,weatherlink.com 1.10,2013-06-04 09:05:00,
2013-06-04 05:19:00,43.6,40.0,29.93,NW,315,6.0,9.0,86,0.00,,,0.00,weatherlink.com 1.10,2013-06-04 09:19:00,
2013-06-04 05:34:00,43.3,40.0,29.93,NNW,328,6.0,7.0,88,0.00,,,0.00,weatherlink.com 1.10,2013-06-04 09:34:00,
2013-06-04 05:49:00,43.2,40.0,29.93,NNW,328,6.0,9.0,87,0.00,,,0.00,weatherlink.com 1.10,2013-06-04 09:49:00,
2013-06-04 06:04:00,43.4,40.0,29.94,NNW,339,5.0,12.0,88,0.00,,,0.00,weatherlink.com 1.10,2013-06-04 10:04:00,
2013-06-04 06:20:00,43.8,40.0,29.94,NW,311,6.0,10.0,87,0.00,,,0.00,weatherlink.com 1.10,2013-06-04 10:20:00,
2013-06-04 06:35:00,45.2,41.0,29.94,NNW,345,9.0,13.0,84,0.00,,,0.00,weatherlink.com 1.10,2013-06-04 10:35:00,
2013-06-04 06:50:00,45.8,41.0,29.94,NNW,329,9.0,12.0,82,0.00,,,0.00,weatherlink.com 1.10,2013-06-04 10:50:00,
2013-06-04 07:05:00,46.1,41.0,29.95,NNW,337,8.0,14.0,82,0.00,,,0.00,weatherlink.com 1.10,2013-06-04 11:05:00,
2013-06-04 07:20:00,46.5,42.0,29.95,NW,323,10.0,14.0,83,0.00,,,0.00,weatherlink.com 1.10,2013-06-04 11:20:00,
2013-06-04 07:35:00,47.1,42.0,29.95,NNW,341,10.0,17.0,82,0.00,,,0.00,weatherlink.com 1.10,2013-06-04 11:35:00,
2013-06-04 07:50:00,47.6,42.0,29.95,North,355,7.0,12.0,81,0.00,,,0.00,weatherlink.com 1.10,2013-06-04 11:50:00,
2013-06-04 08:06:00,48.4,43.0,29.95,North,355,6.0,14.0,80,0.00,,,0.00,weatherlink.com 1.10,2013-06-04 12:06:00,
2013-06-04 08:36:00,49.8,43.0,29.96,NW,323,9.0,18.0,78,0.00,,,0.00,weatherlink.com 1.10,2013-06-04 12:36:00,
2013-06-04 08:51:00,49.9,42.0,29.97,NNW,339,13.0,18.0,75,0.00,,,0.00,weatherlink.com 1.10,2013-06-04 12:51:00,
2013-06-04 09:06:00,50.2,43.0,29.97,NW,319,9.0,23.0,77,0.00,,,0.00,weatherlink.com 1.10,2013-06-04 13:06:00,
2013-06-04 09:21:00,51.3,44.0,29.98,North,355,11.0,20.0,77,0.00,,,0.00,weatherlink.com 1.10,2013-06-04 13:21:00,
2013-06-04 09:36:00,51.8,45.0,29.98,NW,307,17.0,19.0,77,0.00,,,0.00,weatherlink.com 1.10,2013-06-04 13:36:00,
2013-06-04 09:52:00,52.5,43.0,29.98,WNW,288,11.0,21.0,71,0.00,,,0.00,weatherlink.com 1.10,2013-06-04 13:52:00,
2013-06-04 10:07:00,53.4,45.0,29.98,NW,312,9.0,17.0,72,0.00,,,0.00,weatherlink.com 1.10,2013-06-04 14:07:00,
2013-06-04 10:23:00,53.6,43.0,29.99,NNW,330,11.0,24.0,68,0.00,,,0.00,weatherlink.com 1.10,2013-06-04 14:23:00,
2013-06-04 10:37:00,54.6,45.0,29.99,North,355,9.0,17.0,69,0.00,,,0.00,weatherlink.com 1.10,2013-06-04 14:37:00,
2013-06-04 10:52:00,55.5,45.0,29.99,NW,325,15.0,17.0,68,0.00,,,0.00,weatherlink.com 1.10,2013-06-04 14:52:00,
2013-06-04 11:07:00,56.0,44.0,30.00,WNW,302,14.0,20.0,65,0.00,,,0.00,weatherlink.com 1.10,2013-06-04 15:07:00,
2013-06-04 11:22:00,56.2,44.0,29.99,NW,321,10.0,20.0,64,0.00,,,0.00,weatherlink.com 1.10,2013-06-04 15:22:00,
2013-06-04 11:39:00,57.3,45.0,30.00,NW,306,13.0,17.0,64,0.00,,,0.00,weatherlink.com 1.10,2013-06-04 15:39:00,
2013-06-04 11:53:00,57.7,44.0,30.00,SW,219,5.0,19.0,61,0.00,,,0.00,weatherlink.com 1.10,2013-06-04 15:53:00,
2013-06-04 12:08:00,58.1,45.0,30.00,North,355,12.0,21.0,61,0.00,,,0.00,weatherlink.com 1.10,2013-06-04 16:08:00,
2013-06-04 12:23:00,58.7,41.0,30.00,West,281,8.0,17.0,52,0.00,,,0.00,weatherlink.com 1.10,2013-06-04 16:23:00,
2013-06-04 12:38:00,58.6,41.0,30.00,NNW,336,9.0,19.0,52,0.00,,,0.00,weatherlink.com 1.10,2013-06-04 16:38:00,
2013-06-04 12:53:00,59.5,42.0,30.00,NW,311,12.0,18.0,53,0.00,,,0.00,weatherlink.com 1.10,2013-06-04 16:53:00,
2013-06-04 13:08:00,59.8,41.0,30.00,NW,326,6.0,19.0,51,0.00,,,0.00,weatherlink.com 1.10,2013-06-04 17:08:00,
2013-06-04 13:23:00,59.8,42.0,30.00,NNE,18,12.0,23.0,53,0.00,,,0.00,weatherlink.com 1.10,2013-06-04 17:23:00,
2013-06-04 13:39:00,61.0,45.0,30.00,WNW,291,8.0,15.0,57,0.00,,,0.00,weatherlink.com 1.10,2013-06-04 17:39:00,
2013-06-04 13:54:00,61.1,45.0,30.00,WNW,292,17.0,18.0,56,0.00,,,0.00,weatherlink.com 1.10,2013-06-04 17:54:00,
2013-06-04 14:10:00,61.0,41.0,30.00,NW,308,13.0,18.0,49,0.00,,,0.00,weatherlink.com 1.10,2013-06-04 18:10:00,
2013-06-04 14:24:00,61.3,39.0,29.99,NW,326,4.0,19.0,44,0.00,,,0.00,weatherlink.com 1.10,2013-06-04 18:24:00,
2013-06-04 14:39:00,61.9,40.0,29.98,NNW,343,12.0,20.0,45,0.00,,,0.00,weatherlink.com 1.10,2013-06-04 18:39:00,
2013-06-04 14:54:00,62.0,41.0,29.99,WNW,302,7.0,17.0,47,0.00,,,0.00,weatherlink.com 1.10,2013-06-04 18:54:00,
2013-06-04 15:09:00,62.8,42.0,29.99,NW,319,12.0,16.0,47,0.00,,,0.00,weatherlink.com 1.10,2013-06-04 19:09:00,
2013-06-04 15:24:00,62.7,39.0,29.99,North,5,16.0,17.0,42,0.00,,,0.00,weatherlink.com 1.10,2013-06-04 19:24:00,
2013-06-04 15:39:00,62.9,40.0,29.99,NNW,327,9.0,15.0,43,0.00,,,0.00,weatherlink.com 1.10,2013-06-04 19:39:00,
2013-06-04 15:54:00,63.3,38.0,29.99,NW,321,6.0,13.0,39,0.00,,,0.00,weatherlink.com 1.10,2013-06-04 19:54:00,
2013-06-04 16:10:00,63.2,39.0,30.00,NW,315,8.0,17.0,41,0.00,,,0.00,weatherlink.com 1.10,2013-06-04 20:10:00,
2013-06-04 16:25:00,63.2,36.0,30.00,NW,321,6.0,16.0,36,0.00,,,0.00,weatherlink.com 1.10,2013-06-04 20:25:00,
2013-06-04 16:40:00,63.3,34.0,30.00,NNW,327,8.0,17.0,34,0.00,,,0.00,weatherlink.com 1.10,2013-06-04 20:40:00,
2013-06-04 16:55:00,63.3,36.0,30.00,North,5,11.0,14.0,37,0.00,,,0.00,weatherlink.com 1.10,2013-06-04 20:55:00,
2013-06-04 17:10:00,63.3,36.0,30.01,NNW,332,6.0,18.0,37,0.00,,,0.00,weatherlink.com 1.10,2013-06-04 21:10:00,
2013-06-04 17:25:00,63.6,36.0,30.01,WSW,253,10.0,15.0,36,0.00,,,0.00,weatherlink.com 1.10,2013-06-04 21:25:00,
2013-06-04 17:40:00,63.5,34.0,30.01,West,273,5.0,17.0,34,0.00,,,0.00,weatherlink.com 1.10,2013-06-04 21:40:00,
2013-06-04 17:55:00,63.0,37.0,30.02,NNW,345,5.0,12.0,38,0.00,,,0.00,weatherlink.com 1.10,2013-06-04 21:55:00,
2013-06-04 18:10:00,63.1,37.0,30.02,West,279,8.0,12.0,38,0.00,,,0.00,weatherlink.com 1.10,2013-06-04 22:10:00,
2013-06-04 18:25:00,62.7,35.0,30.02,NNW,334,6.0,14.0,36,0.00,,,0.00,weatherlink.com 1.10,2013-06-04 22:25:00,
2013-06-04 18:40:00,62.4,38.0,30.03,NW,310,3.0,12.0,41,0.00,,,0.00,weatherlink.com 1.10,2013-06-04 22:40:00,
2013-06-04 18:56:00,62.0,35.0,30.03,NW,315,8.0,13.0,37,0.00,,,0.00,weatherlink.com 1.10,2013-06-04 22:56:00,
2013-06-04 19:11:00,61.5,36.0,30.04,WNW,287,4.0,10.0,39,0.00,,,0.00,weatherlink.com 1.10,2013-06-04 23:11:00,
2013-06-04 19:26:00,60.7,39.0,30.04,NNW,329,3.0,10.0,45,0.00,,,0.00,weatherlink.com 1.10,2013-06-04 23:26:00,
2013-06-04 19:41:00,59.8,38.0,30.05,WSW,244,3.0,10.0,44,0.00,,,0.00,weatherlink.com 1.10,2013-06-04 23:41:00,
2013-06-04 19:56:00,57.6,37.0,30.05,WNW,291,2.0,7.0,47,0.00,,,0.00,weatherlink.com 1.10,2013-06-04 23:56:00,
2013-06-04 20:11:00,55.8,39.0,30.05,WNW,283,1.0,3.0,54,0.00,,,0.00,weatherlink.com 1.10,2013-06-05 00:11:00,
2013-06-04 20:26:00,53.5,41.0,30.06,WNW,283,2.0,3.0,63,0.00,,,0.00,weatherlink.com 1.10,2013-06-05 00:26:00,
2013-06-04 20:41:00,51.8,43.0,30.07,WNW,283,0.0,3.0,71,0.00,,,0.00,weatherlink.com 1.10,2013-06-05 00:41:00,
2013-06-04 20:56:00,50.1,43.0,30.07,WNW,283,0.0,1.0,76,0.00,,,0.00,weatherlink.com 1.10,2013-06-05 00:56:00,
2013-06-04 21:11:00,49.2,42.0,30.08,WNW,286,3.0,5.0,76,0.00,,,0.00,weatherlink.com 1.10,2013-06-05 01:11:00,
2013-06-04 21:27:00,48.7,42.0,30.08,WNW,288,3.0,5.0,78,0.00,,,0.00,weatherlink.com 1.10,2013-06-05 01:27:00,
2013-06-04 21:43:00,48.8,42.0,30.09,WNW,288,0.0,4.0,78,0.00,,,0.00,weatherlink.com 1.10,2013-06-05 01:43:00,
2013-06-04 21:57:00,47.7,41.0,30.10,WNW,288,0.0,0.0,77,0.00,,,0.00,weatherlink.com 1.10,2013-06-05 01:57:00,
2013-06-04 22:12:00,46.3,42.0,30.11,WNW,288,0.0,0.0,84,0.00,,,0.00,weatherlink.com 1.10,2013-06-05 02:12:00,
2013-06-04 22:27:00,45.4,41.0,30.11,WNW,288,0.0,3.0,84,0.00,,,0.00,weatherlink.com 1.10,2013-06-05 02:27:00,
2013-06-04 22:42:00,45.2,40.0,30.11,WNW,288,0.0,0.0,83,0.00,,,0.00,weatherlink.com 1.10,2013-06-05 02:42:00,
2013-06-04 22:57:00,44.6,40.0,30.12,WNW,288,0.0,3.0,85,0.00,,,0.00,weatherlink.com 1.10,2013-06-05 02:57:00,
2013-06-04 23:12:00,44.3,40.0,30.12,WNW,288,3.0,4.0,85,0.00,,,0.00,weatherlink.com 1.10,2013-06-05 03:12:00,
2013-06-04 23:28:00,44.1,40.0,30.11,WNW,290,0.0,5.0,86,0.00,,,0.00,weatherlink.com 1.10,2013-06-05 03:28:00,
2013-06-04 23:42:00,45.2,40.0,30.12,NNW,336,2.0,4.0,83,0.00,,,0.00,weatherlink.com 1.10,2013-06-05 03:42:00,